HAZ1079 ZBAA-ZYTX
Flight info
| Callsign | HAZ1079 |
|---|---|
| Flight time | 0h 59m |
| Altitude | 25000 |
| Route | ZBAA36R DOTR5Y DOTRA DCT OMDUS OMD62A ZYTXGUMODI06Z |
| Aircraft | A320/L-SDE2E3FGHIJ1RWXY/LB1 |
Departure
| Time | 2026-04-15 05:58 |
|---|---|
| Airport | Beijing Capital International Airport (ZBAA) |
Arrival
| Time | 2026-04-15 06:58 |
|---|---|
| Airport | Shenyang Taoxian International Airport (ZYTX) |
| Time | Latitude | Longitude | Altitude | Speed | Heading |
|---|---|---|---|---|---|
| 2026-04-15 05:31 | 40.07577 | 116.60413 | 125 ft | 0 kts | 61° |
| 2026-04-15 05:47 | 40.07583 | 116.60416 | 125 ft | 2 kts | 61° |
| 2026-04-15 05:47 | 40.07584 | 116.60416 | 125 ft | 0 kts | 61° |
| 2026-04-15 05:47 | 40.07579 | 116.60420 | 125 ft | 0 kts | 62° |
| 2026-04-15 05:47 | 40.07580 | 116.60419 | 125 ft | 0 kts | 62° |
| 2026-04-15 05:48 | 40.07578 | 116.60413 | 125 ft | 2 kts | 60° |
| 2026-04-15 05:48 | 40.07571 | 116.60397 | 125 ft | 2 kts | 62° |
| 2026-04-15 05:48 | 40.07563 | 116.60379 | 125 ft | 2 kts | 61° |
| 2026-04-15 05:49 | 40.07556 | 116.60362 | 125 ft | 2 kts | 61° |
| 2026-04-15 05:49 | 40.07549 | 116.60345 | 125 ft | 2 kts | 72° |
| 2026-04-15 05:49 | 40.07546 | 116.60326 | 125 ft | 2 kts | 84° |
| 2026-04-15 05:49 | 40.07546 | 116.60306 | 125 ft | 2 kts | 96° |
| 2026-04-15 05:50 | 40.07549 | 116.60287 | 125 ft | 2 kts | 108° |
| 2026-04-15 05:50 | 40.07554 | 116.60269 | 125 ft | 2 kts | 120° |
| 2026-04-15 05:50 | 40.07566 | 116.60249 | 125 ft | 0 kts | 133° |
| 2026-04-15 05:51 | 40.07566 | 116.60248 | 125 ft | 0 kts | 133° |
| 2026-04-15 05:51 | 40.07566 | 116.60249 | 125 ft | 0 kts | 133° |
| 2026-04-15 05:53 | 40.07559 | 116.60259 | 125 ft | 6 kts | 133° |
| 2026-04-15 05:53 | 40.07482 | 116.60321 | 125 ft | 19 kts | 158° |
| 2026-04-15 05:54 | 40.07330 | 116.60353 | 125 ft | 22 kts | 174° |
| 2026-04-15 05:54 | 40.07133 | 116.60384 | 125 ft | 32 kts | 173° |
| 2026-04-15 05:54 | 40.06908 | 116.60419 | 125 ft | 32 kts | 173° |
| 2026-04-15 05:54 | 40.06683 | 116.60454 | 125 ft | 33 kts | 173° |
| 2026-04-15 05:55 | 40.06453 | 116.60490 | 125 ft | 32 kts | 174° |
| 2026-04-15 05:55 | 40.06231 | 116.60524 | 125 ft | 31 kts | 177° |
| 2026-04-15 05:55 | 40.06212 | 116.60387 | 125 ft | 17 kts | 252° |
| 2026-04-15 05:55 | 40.06172 | 116.60212 | 125 ft | 14 kts | 255° |
| 2026-04-15 05:56 | 40.06097 | 116.60162 | 125 ft | 14 kts | 172° |
| 2026-04-15 05:56 | 40.05962 | 116.60185 | 125 ft | 24 kts | 174° |
| 2026-04-15 05:56 | 40.05770 | 116.60220 | 125 ft | 32 kts | 165° |
| 2026-04-15 05:56 | 40.05547 | 116.60220 | 125 ft | 26 kts | 241° |
| 2026-04-15 05:57 | 40.05541 | 116.60169 | 125 ft | 5 kts | 263° |
| 2026-04-15 05:57 | 40.05577 | 116.60027 | 125 ft | 22 kts | 321° |
| 2026-04-15 05:57 | 40.05640 | 116.60002 | 125 ft | 0 kts | 352° |
| 2026-04-15 05:57 | 40.05691 | 116.59995 | 125 ft | 32 kts | 354° |
| 2026-04-15 05:58 | 40.06207 | 116.59919 | 125 ft | 113 kts | 353° |
| 2026-04-15 05:58 | 40.07203 | 116.59765 | 145 ft | 173 kts | 353° |
| 2026-04-15 05:58 | 40.08399 | 116.59602 | 939 ft | 170 kts | 353° |
| 2026-04-15 05:58 | 40.09489 | 116.59372 | 1840 ft | 160 kts | 347° |
| 2026-04-15 05:59 | 40.10529 | 116.59022 | 2608 ft | 156 kts | 347° |
| 2026-04-15 05:59 | 40.11657 | 116.58908 | 3100 ft | 172 kts | 358° |
| 2026-04-15 05:59 | 40.12871 | 116.58894 | 3704 ft | 180 kts | 359° |
| 2026-04-15 05:59 | 40.14133 | 116.58910 | 4385 ft | 183 kts | 359° |
| 2026-04-15 06:00 | 40.15395 | 116.58958 | 5070 ft | 184 kts | 0° |
| 2026-04-15 06:00 | 40.16653 | 116.58880 | 5748 ft | 185 kts | 345° |
| 2026-04-15 06:00 | 40.17939 | 116.58547 | 6369 ft | 197 kts | 348° |
| 2026-04-15 06:00 | 40.19315 | 116.58297 | 7069 ft | 206 kts | 351° |
| 2026-04-15 06:01 | 40.20769 | 116.57976 | 7656 ft | 220 kts | 346° |
| 2026-04-15 06:01 | 40.22322 | 116.57565 | 8175 ft | 238 kts | 348° |
| 2026-04-15 06:01 | 40.23993 | 116.57193 | 8654 ft | 258 kts | 349° |
| 2026-04-15 06:01 | 40.25875 | 116.56840 | 8852 ft | 289 kts | 351° |
| 2026-04-15 06:02 | 40.27964 | 116.56478 | 8852 ft | 313 kts | 351° |
| 2026-04-15 06:02 | 40.30128 | 116.56117 | 8851 ft | 316 kts | 351° |
| 2026-04-15 06:02 | 40.32301 | 116.55755 | 8852 ft | 317 kts | 351° |
| 2026-04-15 06:02 | 40.34499 | 116.55387 | 8852 ft | 317 kts | 351° |
| 2026-04-15 06:03 | 40.36681 | 116.55020 | 8852 ft | 317 kts | 351° |
| 2026-04-15 06:03 | 40.38855 | 116.54653 | 8852 ft | 317 kts | 351° |
| 2026-04-15 06:03 | 40.41032 | 116.54328 | 8852 ft | 317 kts | 354° |
| 2026-04-15 06:03 | 40.43254 | 116.54207 | 8871 ft | 321 kts | 359° |
| 2026-04-15 06:04 | 40.45513 | 116.54308 | 9349 ft | 330 kts | 1° |
| 2026-04-15 06:04 | 40.47778 | 116.54471 | 10362 ft | 328 kts | 1° |
| 2026-04-15 06:04 | 40.50039 | 116.54639 | 11200 ft | 332 kts | 1° |
| 2026-04-15 06:04 | 40.52338 | 116.55065 | 11926 ft | 341 kts | 15° |
| 2026-04-15 06:05 | 40.54525 | 116.56358 | 12675 ft | 349 kts | 32° |
| 2026-04-15 06:05 | 40.56442 | 116.58314 | 13420 ft | 355 kts | 39° |
| 2026-04-15 06:05 | 40.58306 | 116.60448 | 14104 ft | 362 kts | 40° |
| 2026-04-15 06:05 | 40.60194 | 116.62642 | 14776 ft | 368 kts | 39° |
| 2026-04-15 06:06 | 40.62132 | 116.64871 | 15447 ft | 374 kts | 39° |
| 2026-04-15 06:06 | 40.64122 | 116.67138 | 16109 ft | 380 kts | 38° |
| 2026-04-15 06:06 | 40.66128 | 116.69406 | 16750 ft | 385 kts | 38° |
| 2026-04-15 06:06 | 40.68168 | 116.71706 | 17381 ft | 391 kts | 38° |
| 2026-04-15 06:07 | 40.70232 | 116.74034 | 17834 ft | 396 kts | 37° |
| 2026-04-15 06:07 | 40.72348 | 116.76422 | 17986 ft | 398 kts | 37° |
| 2026-04-15 06:07 | 40.74358 | 116.78886 | 17981 ft | 400 kts | 46° |
| 2026-04-15 06:07 | 40.75945 | 116.81931 | 17986 ft | 403 kts | 63° |
| 2026-04-15 06:08 | 40.76936 | 116.85375 | 17995 ft | 404 kts | 73° |
| 2026-04-15 06:08 | 40.77674 | 116.88939 | 17994 ft | 404 kts | 76° |
| 2026-04-15 06:08 | 40.78362 | 116.92522 | 17993 ft | 403 kts | 76° |
| 2026-04-15 06:08 | 40.79054 | 116.96111 | 17992 ft | 403 kts | 75° |
| 2026-04-15 06:09 | 40.79758 | 116.99684 | 17992 ft | 402 kts | 74° |
| 2026-04-15 06:09 | 40.80470 | 117.03239 | 17992 ft | 401 kts | 73° |
| 2026-04-15 06:09 | 40.81189 | 117.06788 | 17992 ft | 400 kts | 73° |
| 2026-04-15 06:09 | 40.81904 | 117.10297 | 17992 ft | 399 kts | 72° |
| 2026-04-15 06:10 | 40.82622 | 117.13810 | 17992 ft | 398 kts | 72° |
| 2026-04-15 06:10 | 40.83344 | 117.17336 | 17992 ft | 397 kts | 72° |
| 2026-04-15 06:10 | 40.84063 | 117.20843 | 17991 ft | 397 kts | 72° |
| 2026-04-15 06:10 | 40.84779 | 117.24349 | 17991 ft | 397 kts | 72° |
| 2026-04-15 06:11 | 40.85493 | 117.27852 | 17991 ft | 397 kts | 72° |
| 2026-04-15 06:11 | 40.86216 | 117.31406 | 17991 ft | 397 kts | 72° |
| 2026-04-15 06:11 | 40.86930 | 117.34922 | 17991 ft | 397 kts | 72° |
| 2026-04-15 06:11 | 40.87638 | 117.38420 | 17991 ft | 397 kts | 72° |
| 2026-04-15 06:12 | 40.88349 | 117.41934 | 17991 ft | 397 kts | 72° |
| 2026-04-15 06:12 | 40.89057 | 117.45444 | 17991 ft | 397 kts | 72° |
| 2026-04-15 06:12 | 40.89766 | 117.48962 | 17991 ft | 397 kts | 72° |
| 2026-04-15 06:12 | 40.90481 | 117.52520 | 17991 ft | 397 kts | 72° |
| 2026-04-15 06:13 | 40.91185 | 117.56026 | 17991 ft | 397 kts | 72° |
| 2026-04-15 06:13 | 40.91896 | 117.59570 | 17991 ft | 397 kts | 72° |
| 2026-04-15 06:13 | 40.92600 | 117.63088 | 17991 ft | 397 kts | 72° |
| 2026-04-15 06:13 | 40.93305 | 117.66621 | 17989 ft | 397 kts | 73° |
| 2026-04-15 06:14 | 40.94007 | 117.70139 | 17991 ft | 397 kts | 73° |
| 2026-04-15 06:14 | 40.94707 | 117.73657 | 17991 ft | 397 kts | 73° |
| 2026-04-15 06:14 | 40.95410 | 117.77197 | 17991 ft | 397 kts | 73° |
| 2026-04-15 06:14 | 40.96110 | 117.80725 | 17992 ft | 397 kts | 73° |
| 2026-04-15 06:15 | 40.96813 | 117.84277 | 17991 ft | 397 kts | 73° |
| 2026-04-15 06:15 | 40.97504 | 117.87774 | 17991 ft | 398 kts | 73° |
| 2026-04-15 06:15 | 40.98204 | 117.91323 | 17991 ft | 398 kts | 73° |
| 2026-04-15 06:15 | 40.98898 | 117.94847 | 17991 ft | 398 kts | 73° |
| 2026-04-15 06:16 | 40.99603 | 117.98428 | 17991 ft | 399 kts | 73° |
| 2026-04-15 06:16 | 41.00295 | 118.01957 | 17991 ft | 399 kts | 73° |
| 2026-04-15 06:16 | 41.00995 | 118.05527 | 17991 ft | 399 kts | 73° |
| 2026-04-15 06:16 | 41.01688 | 118.09076 | 17991 ft | 400 kts | 73° |
| 2026-04-15 06:17 | 41.02383 | 118.12635 | 17991 ft | 400 kts | 73° |
| 2026-04-15 06:17 | 41.03077 | 118.16195 | 17991 ft | 400 kts | 73° |
| 2026-04-15 06:17 | 41.03768 | 118.19749 | 17991 ft | 401 kts | 73° |
| 2026-04-15 06:17 | 41.04463 | 118.23328 | 17991 ft | 401 kts | 73° |
| 2026-04-15 06:18 | 41.05151 | 118.26879 | 17991 ft | 401 kts | 73° |
| 2026-04-15 06:18 | 41.05845 | 118.30464 | 17991 ft | 402 kts | 73° |
| 2026-04-15 06:18 | 41.06543 | 118.34081 | 17991 ft | 402 kts | 73° |
| 2026-04-15 06:18 | 41.07234 | 118.37665 | 17991 ft | 402 kts | 73° |
| 2026-04-15 06:19 | 41.07921 | 118.41239 | 17991 ft | 403 kts | 73° |
| 2026-04-15 06:19 | 41.08615 | 118.44853 | 17991 ft | 403 kts | 73° |
| 2026-04-15 06:19 | 41.09296 | 118.48405 | 17990 ft | 403 kts | 73° |
| 2026-04-15 06:19 | 41.09992 | 118.52039 | 17990 ft | 404 kts | 73° |
| 2026-04-15 06:20 | 41.10684 | 118.55664 | 17991 ft | 404 kts | 73° |
| 2026-04-15 06:20 | 41.11370 | 118.59261 | 17991 ft | 404 kts | 73° |
| 2026-04-15 06:20 | 41.12056 | 118.62869 | 17992 ft | 405 kts | 73° |
| 2026-04-15 06:20 | 41.12745 | 118.66491 | 17990 ft | 405 kts | 74° |
| 2026-04-15 06:21 | 41.13428 | 118.70096 | 17990 ft | 405 kts | 74° |
| 2026-04-15 06:21 | 41.14110 | 118.73700 | 17991 ft | 405 kts | 74° |
| 2026-04-15 06:21 | 41.14802 | 118.77367 | 17991 ft | 405 kts | 74° |
| 2026-04-15 06:21 | 41.15483 | 118.80979 | 17991 ft | 405 kts | 74° |
| 2026-04-15 06:22 | 41.16163 | 118.84592 | 17992 ft | 405 kts | 74° |
| 2026-04-15 06:22 | 41.16840 | 118.88200 | 17992 ft | 404 kts | 74° |
| 2026-04-15 06:22 | 41.17517 | 118.91807 | 17994 ft | 403 kts | 74° |
| 2026-04-15 06:22 | 41.18190 | 118.95403 | 17995 ft | 402 kts | 74° |
| 2026-04-15 06:23 | 41.18860 | 118.98991 | 17997 ft | 402 kts | 74° |
| 2026-04-15 06:23 | 41.19535 | 119.02612 | 17999 ft | 401 kts | 74° |
| 2026-04-15 06:23 | 41.20200 | 119.06187 | 18000 ft | 400 kts | 74° |
| 2026-04-15 06:23 | 41.20865 | 119.09767 | 18002 ft | 400 kts | 74° |
| 2026-04-15 06:24 | 41.21532 | 119.13367 | 18003 ft | 400 kts | 74° |
| 2026-04-15 06:24 | 41.22201 | 119.16980 | 18004 ft | 400 kts | 74° |
| 2026-04-15 06:24 | 41.22860 | 119.20551 | 18006 ft | 400 kts | 74° |
| 2026-04-15 06:24 | 41.23517 | 119.24109 | 18008 ft | 400 kts | 74° |
| 2026-04-15 06:25 | 41.24180 | 119.27712 | 18009 ft | 400 kts | 74° |
| 2026-04-15 06:25 | 41.24833 | 119.31275 | 18012 ft | 400 kts | 74° |
| 2026-04-15 06:25 | 41.25498 | 119.34903 | 18008 ft | 400 kts | 74° |
| 2026-04-15 06:25 | 41.26152 | 119.38475 | 17996 ft | 400 kts | 74° |
| 2026-04-15 06:26 | 41.26813 | 119.42091 | 17986 ft | 400 kts | 74° |
| 2026-04-15 06:26 | 41.27465 | 119.45667 | 17978 ft | 400 kts | 74° |
| 2026-04-15 06:26 | 41.28117 | 119.49252 | 17972 ft | 400 kts | 74° |
| 2026-04-15 06:26 | 41.28767 | 119.52831 | 17968 ft | 400 kts | 74° |
| 2026-04-15 06:27 | 41.29423 | 119.56448 | 17967 ft | 400 kts | 74° |
| 2026-04-15 06:27 | 41.30072 | 119.60039 | 17966 ft | 400 kts | 74° |
| 2026-04-15 06:27 | 41.30718 | 119.63612 | 17968 ft | 400 kts | 74° |
| 2026-04-15 06:27 | 41.31372 | 119.67241 | 17968 ft | 400 kts | 75° |
| 2026-04-15 06:28 | 41.32015 | 119.70819 | 17972 ft | 401 kts | 75° |
| 2026-04-15 06:28 | 41.32660 | 119.74415 | 17976 ft | 401 kts | 75° |
| 2026-04-15 06:28 | 41.33302 | 119.77998 | 17979 ft | 401 kts | 75° |
| 2026-04-15 06:28 | 41.33950 | 119.81623 | 17983 ft | 401 kts | 75° |
| 2026-04-15 06:29 | 41.34589 | 119.85207 | 17985 ft | 401 kts | 75° |
| 2026-04-15 06:29 | 41.35228 | 119.88796 | 17987 ft | 401 kts | 75° |
| 2026-04-15 06:29 | 41.35877 | 119.92445 | 17989 ft | 401 kts | 75° |
| 2026-04-15 06:29 | 41.36512 | 119.96027 | 17989 ft | 401 kts | 75° |
| 2026-04-15 06:30 | 41.37151 | 119.99635 | 17989 ft | 401 kts | 75° |
| 2026-04-15 06:30 | 41.37788 | 120.03233 | 17990 ft | 401 kts | 75° |
| 2026-04-15 06:30 | 41.38429 | 120.06870 | 17990 ft | 401 kts | 75° |
| 2026-04-15 06:30 | 41.39059 | 120.10454 | 17989 ft | 401 kts | 75° |
| 2026-04-15 06:31 | 41.39698 | 120.14088 | 17990 ft | 401 kts | 75° |
| 2026-04-15 06:31 | 41.40327 | 120.17676 | 17990 ft | 401 kts | 75° |
| 2026-04-15 06:31 | 41.40962 | 120.21306 | 17990 ft | 401 kts | 75° |
| 2026-04-15 06:31 | 41.41590 | 120.24900 | 17990 ft | 401 kts | 75° |
| 2026-04-15 06:32 | 41.42224 | 120.28540 | 17990 ft | 401 kts | 75° |
| 2026-04-15 06:32 | 41.42851 | 120.32140 | 17990 ft | 401 kts | 75° |
| 2026-04-15 06:32 | 41.43476 | 120.35747 | 17990 ft | 401 kts | 75° |
| 2026-04-15 06:32 | 41.44103 | 120.39363 | 17990 ft | 401 kts | 75° |
| 2026-04-15 06:33 | 41.44728 | 120.42975 | 17990 ft | 401 kts | 75° |
| 2026-04-15 06:33 | 41.45351 | 120.46584 | 17990 ft | 401 kts | 75° |
| 2026-04-15 06:33 | 41.45977 | 120.50221 | 17990 ft | 401 kts | 75° |
| 2026-04-15 06:33 | 41.46594 | 120.53810 | 17990 ft | 401 kts | 75° |
| 2026-04-15 06:34 | 41.47212 | 120.57415 | 17990 ft | 401 kts | 75° |
| 2026-04-15 06:34 | 41.47831 | 120.61029 | 17990 ft | 401 kts | 75° |
| 2026-04-15 06:34 | 41.48455 | 120.64682 | 17990 ft | 401 kts | 75° |
| 2026-04-15 06:34 | 41.49071 | 120.68291 | 17988 ft | 401 kts | 75° |
| 2026-04-15 06:35 | 41.49690 | 120.71926 | 17989 ft | 401 kts | 76° |
| 2026-04-15 06:35 | 41.50305 | 120.75551 | 17989 ft | 401 kts | 75° |
| 2026-04-15 06:35 | 41.50920 | 120.79179 | 17989 ft | 401 kts | 75° |
| 2026-04-15 06:35 | 41.51532 | 120.82800 | 17987 ft | 401 kts | 75° |
| 2026-04-15 06:36 | 41.52143 | 120.86414 | 17985 ft | 401 kts | 76° |
| 2026-04-15 06:36 | 41.52753 | 120.90032 | 17982 ft | 401 kts | 76° |
| 2026-04-15 06:36 | 41.53366 | 120.93681 | 17978 ft | 401 kts | 75° |
| 2026-04-15 06:36 | 41.53979 | 120.97330 | 17974 ft | 401 kts | 75° |
| 2026-04-15 06:37 | 41.54588 | 121.00957 | 17970 ft | 402 kts | 76° |
| 2026-04-15 06:37 | 41.55191 | 121.04562 | 17967 ft | 402 kts | 76° |
| 2026-04-15 06:37 | 41.55804 | 121.08231 | 17965 ft | 403 kts | 76° |
| 2026-04-15 06:37 | 41.56411 | 121.11877 | 17964 ft | 404 kts | 76° |
| 2026-04-15 06:38 | 41.56999 | 121.15556 | 17963 ft | 405 kts | 78° |
| 2026-04-15 06:38 | 41.57428 | 121.19268 | 17962 ft | 406 kts | 83° |
| 2026-04-15 06:38 | 41.57654 | 121.23013 | 17963 ft | 407 kts | 87° |
| 2026-04-15 06:38 | 41.57773 | 121.26833 | 17963 ft | 407 kts | 88° |
| 2026-04-15 06:39 | 41.57868 | 121.30555 | 17963 ft | 407 kts | 88° |
| 2026-04-15 06:39 | 41.57964 | 121.34336 | 17963 ft | 407 kts | 88° |
| 2026-04-15 06:39 | 41.58062 | 121.38116 | 17963 ft | 407 kts | 88° |
| 2026-04-15 06:39 | 41.58162 | 121.41885 | 17963 ft | 407 kts | 88° |
| 2026-04-15 06:40 | 41.58265 | 121.45674 | 17963 ft | 407 kts | 88° |
| 2026-04-15 06:40 | 41.58367 | 121.49445 | 17963 ft | 407 kts | 88° |
| 2026-04-15 06:40 | 41.58469 | 121.53217 | 17963 ft | 407 kts | 88° |
| 2026-04-15 06:40 | 41.58571 | 121.57023 | 17963 ft | 407 kts | 88° |
| 2026-04-15 06:41 | 41.58670 | 121.60783 | 17963 ft | 407 kts | 88° |
| 2026-04-15 06:41 | 41.58768 | 121.64545 | 17963 ft | 407 kts | 88° |
| 2026-04-15 06:41 | 41.58867 | 121.68352 | 17962 ft | 407 kts | 88° |
| 2026-04-15 06:41 | 41.58963 | 121.72103 | 17963 ft | 407 kts | 88° |
| 2026-04-15 06:42 | 41.59057 | 121.75864 | 17963 ft | 407 kts | 88° |
| 2026-04-15 06:42 | 41.59152 | 121.79675 | 17963 ft | 407 kts | 88° |
| 2026-04-15 06:42 | 41.59244 | 121.83442 | 17963 ft | 407 kts | 88° |
| 2026-04-15 06:42 | 41.59334 | 121.87178 | 17963 ft | 407 kts | 88° |
| 2026-04-15 06:43 | 41.59425 | 121.90948 | 17963 ft | 407 kts | 88° |
| 2026-04-15 06:43 | 41.59515 | 121.94762 | 17963 ft | 407 kts | 88° |
| 2026-04-15 06:43 | 41.59602 | 121.98532 | 17963 ft | 407 kts | 88° |
| 2026-04-15 06:43 | 41.59687 | 122.02286 | 17963 ft | 407 kts | 88° |
| 2026-04-15 06:44 | 41.59772 | 122.06040 | 17963 ft | 407 kts | 88° |
| 2026-04-15 06:44 | 41.59767 | 122.09843 | 17963 ft | 407 kts | 92° |
| 2026-04-15 06:44 | 41.59558 | 122.13631 | 17963 ft | 407 kts | 97° |
| 2026-04-15 06:44 | 41.59182 | 122.17345 | 17964 ft | 406 kts | 99° |
| 2026-04-15 06:45 | 41.58762 | 122.21058 | 17963 ft | 406 kts | 99° |
| 2026-04-15 06:45 | 41.58333 | 122.24800 | 17963 ft | 406 kts | 99° |
| 2026-04-15 06:45 | 41.57911 | 122.28506 | 17963 ft | 406 kts | 99° |
| 2026-04-15 06:45 | 41.57491 | 122.32220 | 17963 ft | 406 kts | 99° |
| 2026-04-15 06:46 | 41.57051 | 122.36130 | 17963 ft | 406 kts | 99° |
| 2026-04-15 06:46 | 41.56633 | 122.39841 | 17963 ft | 406 kts | 99° |
| 2026-04-15 06:46 | 41.56210 | 122.43597 | 17963 ft | 406 kts | 99° |
| 2026-04-15 06:46 | 41.55790 | 122.47320 | 17963 ft | 406 kts | 99° |
| 2026-04-15 06:47 | 41.55368 | 122.51047 | 17957 ft | 405 kts | 99° |
| 2026-04-15 06:47 | 41.54952 | 122.54723 | 17703 ft | 400 kts | 99° |
| 2026-04-15 06:47 | 41.54537 | 122.58379 | 17189 ft | 399 kts | 99° |
| 2026-04-15 06:47 | 41.54121 | 122.62023 | 16716 ft | 396 kts | 99° |
| 2026-04-15 06:48 | 41.53709 | 122.65624 | 16280 ft | 392 kts | 100° |
| 2026-04-15 06:48 | 41.53300 | 122.69190 | 15836 ft | 388 kts | 100° |
| 2026-04-15 06:48 | 41.52893 | 122.72729 | 15369 ft | 385 kts | 100° |
| 2026-04-15 06:48 | 41.52484 | 122.76257 | 14747 ft | 386 kts | 100° |
| 2026-04-15 06:49 | 41.52078 | 122.79752 | 14135 ft | 386 kts | 100° |
| 2026-04-15 06:49 | 41.51666 | 122.83275 | 13735 ft | 380 kts | 100° |
| 2026-04-15 06:49 | 41.51258 | 122.86748 | 13012 ft | 384 kts | 100° |
| 2026-04-15 06:50 | 41.50425 | 122.93767 | 11529 ft | 376 kts | 99° |
| 2026-04-15 06:50 | 41.50032 | 122.97105 | 10785 ft | 360 kts | 99° |
| 2026-04-15 06:50 | 41.49656 | 123.00321 | 10040 ft | 346 kts | 99° |
| 2026-04-15 06:50 | 41.49293 | 123.03410 | 9295 ft | 335 kts | 99° |
| 2026-04-15 06:51 | 41.48941 | 123.06406 | 8549 ft | 325 kts | 99° |
| 2026-04-15 06:51 | 41.48596 | 123.09330 | 7800 ft | 317 kts | 99° |
| 2026-04-15 06:51 | 41.48254 | 123.12206 | 7043 ft | 309 kts | 99° |
| 2026-04-15 06:51 | 41.47925 | 123.14975 | 6298 ft | 303 kts | 99° |
| 2026-04-15 06:52 | 41.47585 | 123.17743 | 3089 ft | 293 kts | 100° |
| 2026-04-15 06:52 | 41.47284 | 123.20171 | 2965 ft | 222 kts | 101° |
| 2026-04-15 06:52 | 41.47118 | 123.22242 | 2922 ft | 222 kts | 83° |
| 2026-04-15 06:52 | 41.47713 | 123.24066 | 2938 ft | 219 kts | 51° |
| 2026-04-15 06:53 | 41.48734 | 123.25589 | 2969 ft | 219 kts | 47° |
| 2026-04-15 06:53 | 41.49777 | 123.27065 | 2967 ft | 218 kts | 47° |
| 2026-04-15 06:53 | 41.50809 | 123.28554 | 2965 ft | 219 kts | 48° |
| 2026-04-15 06:53 | 41.51802 | 123.30026 | 2975 ft | 206 kts | 47° |
| 2026-04-15 06:54 | 41.52708 | 123.31374 | 3008 ft | 185 kts | 48° |
| 2026-04-15 06:54 | 41.53513 | 123.32559 | 2901 ft | 166 kts | 49° |
| 2026-04-15 06:54 | 41.54271 | 123.33686 | 2624 ft | 161 kts | 49° |
| 2026-04-15 06:54 | 41.55011 | 123.34796 | 2296 ft | 160 kts | 50° |
| 2026-04-15 06:55 | 41.55747 | 123.35902 | 2005 ft | 156 kts | 50° |
| 2026-04-15 06:55 | 41.56454 | 123.36976 | 1774 ft | 154 kts | 49° |
| 2026-04-15 06:55 | 41.57158 | 123.38062 | 1575 ft | 155 kts | 49° |
| 2026-04-15 06:55 | 41.57884 | 123.39154 | 1586 ft | 157 kts | 50° |
| 2026-04-15 06:56 | 41.58612 | 123.40251 | 1501 ft | 158 kts | 48° |
| 2026-04-15 06:56 | 41.59335 | 123.41341 | 1340 ft | 158 kts | 50° |
| 2026-04-15 06:56 | 41.60075 | 123.42441 | 1028 ft | 157 kts | 47° |
| 2026-04-15 06:56 | 41.60806 | 123.43489 | 839 ft | 154 kts | 49° |
| 2026-04-15 06:57 | 41.61505 | 123.44567 | 621 ft | 155 kts | 47° |
| 2026-04-15 06:57 | 41.62218 | 123.45647 | 461 ft | 154 kts | 51° |
| 2026-04-15 06:57 | 41.62918 | 123.46738 | 249 ft | 154 kts | 49° |
| 2026-04-15 06:57 | 41.63604 | 123.47780 | 184 ft | 141 kts | 47° |
| 2026-04-15 06:58 | 41.64145 | 123.48586 | 192 ft | 92 kts | 49° |
| 2026-04-15 06:58 | 41.64457 | 123.49058 | 199 ft | 43 kts | 46° |
| 2026-04-15 06:58 | 41.64656 | 123.49348 | 202 ft | 41 kts | 44° |
| 2026-04-15 06:58 | 41.64828 | 123.49632 | 202 ft | 36 kts | 73° |
| 2026-04-15 06:59 | 41.64775 | 123.49757 | 202 ft | 0 kts | 224° |
| 2026-04-15 06:59 | 41.64772 | 123.49754 | 202 ft | 1 kts | 222° |
| 2026-04-15 06:59 | 41.64306 | 123.49030 | 197 ft | 0 kts | 220° |